• Join FlightAware (Why Join?)
  • Login
  • US Flag 
07:29AM EDT


 

Airport Tracker/Info


-or-


 

Live Flight TrackerFlight Track Log ✈ N500CD ✈ 27-Dec-2013 ✈ KTEB - KCHS

Flight Track Log - Related Links

Times and Time Zones

All times are in EST time to prevent confusion due to time zone crossing. See the N500CD flight status page for this flight to view local times or setup timezone preferences in your user account.

Time Position Orientation Groundspeed Altitude Reporting Facility
EST Latitude Longitude Course Direction KTS MPH feet Rate Location/Type
02:05PM 40.8333 -74.1167 229° Southwest 171 197 1,500  Level New York TRACON
02:06PM 40.8000 -74.1667 229° Southwest 187 215 4,500 2,940 Climbing New York TRACON
02:07PM 40.7333 -74.1833 191° South 231 266 7,400 3,300 Climbing New York TRACON
02:08PM 40.6833 -74.2000 194° South 192 221 11,100 3,120 Climbing New York TRACON
02:09PM 40.6167 -74.2000 180° South 212 244 13,700 2,100 Climbing New York TRACON
02:10PM 40.5322 -74.2117 186° South 202 232 17,000 1,140 Climbing New York Center
02:11PM 40.4528 -74.2211 185° South 248 285 17,000 240 Level New York Center
02:12PM 40.3653 -74.2278 183° South 298 343 17,500 1,020 Climbing New York Center
02:13PM 40.2881 -74.2292 181° South 312 359 19,100 1,800 Climbing New York Center
02:14PM 40.2147 -74.2364 184° South 299 344 21,100 1,800 Climbing New York Center
02:15PM 40.1636 -74.2775 212° Southwest 236 272 22,700 1,020 Climbing New York Center
02:17PM 40.0800 -74.3633 218° Southwest 228 262 24,000 840 Climbing Washington Center
02:18PM 40.0222 -74.4158 215° Southwest 245 282 25,100 1,380 Climbing Washington Center
02:19PM 39.9708 -74.4681 218° Southwest 250 288 26,800 1,620 Climbing Washington Center
02:21PM 39.8778 -74.5561 218° Southwest 219 252 30,000 1,500 Climbing Washington Center
02:22PM 39.8364 -74.5972 217° Southwest 207 238 31,300 1,140 Climbing Washington Center
02:23PM 39.7889 -74.6411 215° Southwest 196 226 32,300 960 Climbing Washington Center
02:24PM 39.7497 -74.6819 219° Southwest 196 226 33,300 900 Climbing Washington Center
02:25PM 39.7083 -74.7231 217° Southwest 196 226 34,200 780 Climbing Washington Center
02:26PM 39.6669 -74.7611 215° Southwest 196 226 34,900 660 Climbing Washington Center
02:27PM 39.6256 -74.7994 216° Southwest 196 226 35,600 600 Climbing Washington Center
02:28PM 39.5883 -74.8403 220° Southwest 196 226 36,200 660 Climbing Washington Center
02:29PM 39.5467 -74.8783 215° Southwest 196 226 37,000 600 Climbing Washington Center
02:30PM 39.5094 -74.9164 218° Southwest 190 219 37,400 360 Climbing Washington Center
02:31PM 39.4597 -74.9411 201° Southwest 185 213 37,800 480 Climbing Washington Center
02:32PM 39.4078 -74.9683 202° Southwest 195 224 38,400 480 Climbing Washington Center
02:33PM 39.3600 -74.9958 204° Southwest 195 224 38,800 360 Climbing Washington Center
02:34PM 39.3100 -75.0203 201° Southwest 195 224 39,200 360 Climbing Washington Center
02:35PM 39.2622 -75.0419 199° South 190 219 39,600 300 Climbing Washington Center
02:36PM 39.2186 -75.0664 203° Southwest 190 219 39,900 180 Climbing Washington Center
02:37PM 39.1728 -75.0908 202° Southwest 185 213 40,000  Climbing Washington Center
02:38PM 39.1228 -75.1181 203° Southwest 185 213 40,000  Level Washington Center
02:39PM 39.0708 -75.1453 202° Southwest 196 226 40,000  Level Washington Center
02:40PM 39.0147 -75.1750 202° Southwest 203 234 40,000  Level Washington Center
02:41PM 38.9583 -75.1992 198° South 214 246 40,000  Level Washington Center
02:42PM 38.9003 -75.2342 205° Southwest 225 259 40,000  Level Washington Center
02:43PM 38.8419 -75.2611 200° South 225 259 40,000  Level Washington Center
02:44PM 38.7836 -75.2908 202° Southwest 230 265 40,000  Level Washington Center
02:45PM 38.7253 -75.3203 201° Southwest 230 265 40,000  Level Washington Center
02:46PM 38.6669 -75.3550 205° Southwest 230 265 40,000  Level Washington Center
02:47PM 38.6086 -75.3817 200° South 230 265 40,000  Level Washington Center
02:48PM 38.5483 -75.4086 199° South 230 265 40,000  Level Washington Center
02:49PM 38.4919 -75.4431 206° Southwest 230 265 40,000  Level Washington Center
02:50PM 38.4317 -75.4725 201° Southwest 230 265 40,000  Level Washington Center
02:51PM 38.3733 -75.4989 200° South 230 265 40,000  Level Washington Center
02:52PM 38.3169 -75.5283 202° Southwest 230 265 40,000  Level Washington Center
02:53PM 38.2608 -75.5628 206° Southwest 230 265 40,000  Level Washington Center
02:54PM 38.2044 -75.5969 205° Southwest 230 265 40,000  Level Washington Center
02:55PM 38.1481 -75.6314 206° Southwest 230 265 40,000  Level Washington Center
02:56PM 38.0939 -75.6656 206° Southwest 230 265 40,000  Level Washington Center
02:57PM 38.0500 -75.6972 210° Southwest 230 265 40,000  Level Washington Center
02:58PM 37.9917 -75.7394 210° Southwest 224 258 40,000  Level Washington Center
02:59PM 37.9353 -75.7733 205° Southwest 224 258 40,000  Level Washington Center
03:00PM 37.8789 -75.8075 206° Southwest 224 258 40,000  Level Washington Center
03:01PM 37.8142 -75.8389 201° Southwest 224 258 40,000  Level Washington Center
03:02PM 37.7661 -75.8781 213° Southwest 229 264 40,000  Level Washington Center
03:03PM 37.7119 -75.9119 206° Southwest 229 264 40,000  Level Washington Center
03:04PM 37.6533 -75.9458 205° Southwest 224 258 40,000  Level Washington Center
03:05PM 37.5969 -75.9797 205° Southwest 224 258 40,000  Level Washington Center
03:06PM 37.5406 -76.0161 207° Southwest 224 258 40,000  Level Washington Center
03:07PM 37.4842 -76.0497 205° Southwest 224 258 40,000  Level Washington Center
03:08PM 37.4256 -76.0861 206° Southwest 224 258 40,000  Level Washington Center
03:09PM 37.3711 -76.1197 206° Southwest 224 258 40,000  Level Washington Center
03:10PM 37.3147 -76.1533 205° Southwest 224 258 40,000  Level Washington Center
03:11PM 37.2478 -76.1867 202° Southwest 224 258 40,000  Level Washington Center
03:12PM 37.1911 -76.2228 207° Southwest 229 264 40,000  Level Washington Center
03:13PM 37.1347 -76.2561 205° Southwest 229 264 40,000  Level Washington Center
03:14PM 37.0783 -76.2922 207° Southwest 229 264 40,000  Level Washington Center
03:15PM 37.0217 -76.3256 205° Southwest 229 264 40,000  Level Washington Center
03:16PM 36.9672 -76.3586 206° Southwest 229 264 40,000  Level Washington Center
03:17PM 36.9128 -76.3894 204° Southwest 224 258 40,000  Level Washington Center
03:18PM 36.8583 -76.4225 206° Southwest 219 252 40,000  Level Washington Center
03:19PM 36.8058 -76.4531 205° Southwest 219 252 40,000  Level Washington Center
03:20PM 36.7536 -76.4864 207° Southwest 219 252 40,000  Level Washington Center
03:21PM 36.7011 -76.5219 209° Southwest 219 252 40,000  Level Washington Center
03:22PM 36.6486 -76.5525 205° Southwest 219 252 40,000  Level Washington Center
03:23PM 36.5964 -76.5828 205° Southwest 219 252 40,000  Level Washington Center
03:24PM 36.5419 -76.6158 206° Southwest 219 252 40,000  Level Washington Center
03:25PM 36.4914 -76.6433 204° Southwest 219 252 40,000  Level Washington Center
03:26PM 36.4392 -76.6764 207° Southwest 214 246 40,000  Level Washington Center
03:27PM 36.3867 -76.7067 205° Southwest 214 246 40,000  Level Washington Center
03:28PM 36.3342 -76.7367 205° Southwest 214 246 40,000  Level Washington Center
03:29PM 36.2817 -76.7669 205° Southwest 214 246 40,000  Level Washington Center
03:30PM 36.2314 -76.7969 206° Southwest 214 246 40,000  Level Washington Center
03:31PM 36.1789 -76.8297 207° Southwest 214 246 40,000  Level Washington Center
03:32PM 36.1264 -76.8597 205° Southwest 214 246 40,000  Level Washington Center
03:33PM 36.0739 -76.8897 205° Southwest 214 246 40,000  Level Washington Center
03:34PM 36.0256 -76.9275 212° Southwest 214 246 40,000  Level Washington Center
03:35PM 35.9853 -76.9706 221° Southwest 209 241 40,000  Level Washington Center
03:36PM 35.9411 -77.0133 218° Southwest 204 235 40,000 -60 Level Washington Center
03:37PM 35.9008 -77.0561 221° Southwest 204 235 39,900 -960 Descending Washington Center
03:38PM 35.8514 -77.0184 221° Southwest  Level FlightAware Approximate
03:38PM 35.8522 -77.1039 219° Southwest 210 242 38,200  Level Washington Center
03:39PM 35.8058 -77.1544 221° Southwest 223 257 36,400 -1,980 Descending Washington Center
03:40PM 35.7550 -77.2072 220° Southwest 229 264 34,300 -1,260 Descending Washington Center
03:41PM 35.7086 -77.2522 218° Southwest 235 270 34,000 -180 Descending Washington Center
03:42PM 35.6597 -77.3047 221° Southwest 235 270 34,000  Level Washington Center
03:43PM 35.6047 -77.3625 221° Southwest 245 282 34,000  Level Washington Center
03:44PM 35.5475 -77.4172 218° Southwest 260 299 34,000  Level Washington Center
03:45PM 35.4925 -77.4747 220° Southwest 265 305 34,000  Level Washington Center
03:46PM 35.4308 -77.5344 218° Southwest 265 305 34,000  Level Washington Center
03:47PM 35.3736 -77.5917 219° Southwest 265 305 34,000 -2,940 Level Washington Center
03:48PM 35.3164 -77.6489 219° Southwest 265 305 28,000  Descending Washington Center
03:49PM 35.2547 -77.7083 218° Southwest 278 320 34,000 3,000 Climbing Washington Center
03:50PM 35.1975 -77.7678 220° Southwest 273 314 34,000  Level Washington Center
03:51PM 35.1378 -77.8297 220° Southwest 273 314 34,000  Level Washington Center
03:52PM 35.0783 -77.8889 219° Southwest 279 321 34,000  Level Washington Center
03:53PM 35.0167 -77.9481 218° Southwest 279 321 34,000  Level Washington Center
03:54PM 34.9592 -78.0072 220° Southwest 279 321 34,000  Level Washington Center
03:56PM 34.8472 -78.1144 218° Southwest 282 325 34,000  Level Jacksonville Center
03:57PM 34.7869 -78.1758 220° Southwest 288 331 34,000  Level Jacksonville Center
03:58PM 34.7369 -78.2342 224° Southwest 288 331 34,000  Level Jacksonville Center
03:59PM 34.6767 -78.2931 219° Southwest 288 331 34,000  Level Jacksonville Center
04:00PM 34.6142 -78.3519 218° Southwest 288 331 34,000  Level Jacksonville Center
04:01PM 34.5539 -78.4131 220° Southwest 293 337 34,000 -900 Level Jacksonville Center
04:02PM 34.4969 -78.4589 214° Southwest 288 331 32,300 -2,040 Descending Jacksonville Center
04:03PM 34.4408 -78.5219 223° Southwest 275 316 30,000 -2,100 Descending Jacksonville Center
04:04PM 34.3822 -78.5778 218° Southwest 268 308 28,200 -1,020 Descending Jacksonville Center
04:05PM 34.3236 -78.6361 219° Southwest 268 308 28,000 -360 Descending Jacksonville Center
04:06PM 34.2633 -78.7019 222° Southwest 279 321 27,500 -840 Descending Jacksonville Center
04:07PM 34.2092 -78.7647 224° Southwest 279 321 26,400 -1,080 Descending Jacksonville Center
04:08PM 34.1508 -78.8303 223° Southwest 279 321 25,400 -1,020 Descending Jacksonville Center
04:09PM 34.0964 -78.8928 224° Southwest 284 327 24,400 -900 Descending Jacksonville Center
04:10PM 34.0358 -78.9608 223° Southwest 289 333 23,600 -900 Descending Jacksonville Center
04:11PM 33.9733 -79.0311 223° Southwest 299 344 22,700 -1,020 Descending Jacksonville Center
04:12PM 33.9047 -79.1067 222° Southwest 318 366 21,600 -1,500 Descending Jacksonville Center
04:13PM 33.8422 -79.1744 222° Southwest 318 366 19,700 -1,800 Descending Jacksonville Center
04:14PM 33.7794 -79.2469 224° Southwest 318 366 18,000 -1,500 Descending Jacksonville Center
04:15PM 33.7039 -79.3028 212° Southwest 313 360 16,700 -1,440 Descending Jacksonville Center
04:16PM 33.6303 -79.3556 211° Southwest 307 353 15,200 -1,500 Descending Jacksonville Center
04:17PM 33.5569 -79.4133 213° Southwest 307 353 13,700 -1,560 Descending Jacksonville Center
04:18PM 33.4872 -79.4658 212° Southwest 312 359 12,100 -1,380 Descending Jacksonville Center
04:19PM 33.4136 -79.5208 212° Southwest 312 359 11,000 -600 Descending Jacksonville Center
04:20PM 33.3400 -79.5758 212° Southwest 312 359 11,000 -600 Level Jacksonville Center
04:21PM 33.2636 -79.6111 201° Southwest 302 348 9,900 -1,320 Descending Jacksonville Center
04:22PM 33.1894 -79.6436 200° South 290 334 8,400 -1,500 Descending Jacksonville Center
04:23PM 33.1169 -79.6686 196° South 285 328 6,900 -1,500 Descending Jacksonville Center
04:24PM 33.0489 -79.6958 199° South 275 316 5,400 -1,500 Descending Jacksonville Center
04:25PM 32.9786 -79.7256 200° South 275 316 3,900 -1,200 Descending Jacksonville Center
04:26PM 32.9125 -79.7550 201° Southwest 270 311 3,000 -540 Descending Jacksonville Center
04:27PM 32.8597 -79.8089 221° Southwest 252 290 2,900 -120 Descending Jacksonville Center
04:29PM 32.8787 -79.9213 209° Southwest  Level Estimated
04:36PM 32.8833 -80.0333 348° North  Level FlightAware Approximate
04:37PM 32.8986 -80.0405 348° North  Level Estimated
04:38PM 32.8986 -80.0405 348° North  Level Estimated
04:39PM 32.8986 -80.0405 348° North  Level Estimated
04:40PM 32.8986 -80.0405 348° North  Level Estimated